Главная страница
METAR-TAF:

METAR-TAF

Аэропорты :

Бахрейн, Бахрейн

широта: 26-16N, долгота: 050-39E, высота над уровнем моря: 2 м

Текущие метеонаблюдения

Эта сводка был подготовлена 53 минут назад, в 01:30 UTC
Ветер 3 Узел от юго-юго-восточный
Температура 14°C
Влажность 88%
Давление 1016 hPa
Видимость: 4000 м
ясное небо
мгла

METAR: OBBI 230130Z 16003KT 4000 HZ SKC 14/12 Q1016 NOSIG

Время: 05:23 (02:23 UTC)

Прогноз

Эта сводка был подготовлена 3 часа и 23 минут назад, в 23:00 UTC
Прогноз действительный с 23-го 00 UTC до 24-го 06 UTC
Ветер 5 Узел переменных направлений
Видимость: 4000 м
мгла
Вероятность 30% :
временами
С 23-го 01 UTC до 23-го 05 UTC
Видимость: 1500 м
Отдельные облака на высоте 800 фута
дымка
изменения
С 23-го 08 UTC до 23-го 10 UTC
Ветер 10 Узел от юго-восточный
Видимость: 7000 м

TAF: OBBI 222300Z 2300/2406 VRB05KT 4000 HZ NSC PROB30 TEMPO 2301/2305 1500 BR SCT008 BECMG 2308/2310 14010KT 7000

Метеонаблюдения и прогнозы для более 4000 аэропортов (сводки METAR и TAF).

Имеющиеся станции представлены на карте желтыми и красными точками.

Чтобы увидеть название станции, наведите на нее мышь.

Затем щелкните, чтобы увидеть метеонаблюдения и метеопрогнозы.

Управление картой: чтобы увеличить масштаб, щелкните зеленые кнопки с черным крестиком; чтобы уменьшить масштаб, щелкните зеленую кнопку с тире; для просмотра соседних карт щелкайте зеленые стрелки.


METAR-TAF: